PWSweather.com
Personal Weather Stations
Station Observations

Acton, CA 93510

Lat: 34.47703, Lon: -118.17483

Elevation: 2900

Station Type: Davis Vantage Pro 2

http://www.actonastro.com/weather/current.php

Latest ConditionsUpdated 5:41:22 AM PST Wednesday, Nov 26, 2014
Currently Today's Max Today's Min Today's Average
Temperature 52.3°F11.3°C 53.9°F12.2°C 50.1°F10.1°C 52.5°F11.4°C
Dew Point 6.1°F-14.4°C 11.3°F-11.5°C 5.0°F-15.0°C 6.3°F-14.3°C
Winds 3.0 mph E4.8 kmh E 10.0 mph ENE16.1 kmh ENE - 4.7 mph 7.6 kmh
Wind Gusts 8.0 mph12.9 kmh 15.0 mph24.1 kmh - -
Humidity 15% 19% 14% 15%
Pressure 30.18 in1022.0 mb 30.18 in1022.0 mb 30.14 in1020.7 mb -
Hour Temp Dew Point Humidity Winds Wind Gusts Pressure Precip Precip Rate Daily Precip Total
05:41 AM 52.3°F11.3°C 6.1°F-14.4°C 15% 3.0 mph E4.8 kmh E 8.0 mph12.9 kmh 30.18 in1022.0 mb 0.00 in0.0 mm 0.00 in/hr0.0 mm/hr 0.00 in0.0 mm
05:36 AM 52.3°F11.3°C 6.1°F-14.4°C 15% 3.0 mph SE4.8 kmh SE 12.0 mph19.3 kmh 30.18 in1022.0 mb 0.00 in0.0 mm 0.00 in/hr0.0 mm/hr 0.00 in0.0 mm
05:31 AM 52.2°F11.2°C 6.0°F-14.4°C 15% 4.0 mph E6.4 kmh E 12.0 mph19.3 kmh 30.18 in1022.0 mb 0.00 in0.0 mm 0.00 in/hr0.0 mm/hr 0.00 in0.0 mm
05:26 AM 52.0°F11.1°C 5.8°F-14.6°C 15% 4.0 mph E6.4 kmh E 12.0 mph19.3 kmh 30.18 in1022.0 mb 0.00 in0.0 mm 0.00 in/hr0.0 mm/hr 0.00 in0.0 mm
05:21 AM 51.4°F10.8°C 5.3°F-14.8°C 15% 2.0 mph E3.2 kmh E 12.0 mph19.3 kmh 30.18 in1022.0 mb 0.00 in0.0 mm 0.00 in/hr0.0 mm/hr 0.00 in0.0 mm
05:16 AM 51.0°F10.6°C 5.0°F-15.0°C 15% 5.0 mph E8.0 kmh E 7.0 mph11.3 kmh 30.18 in1022.0 mb 0.00 in0.0 mm 0.00 in/hr0.0 mm/hr 0.00 in0.0 mm
05:11 AM 50.7°F10.4°C 6.2°F-14.3°C 16% 4.0 mph ENE6.4 kmh ENE 5.0 mph8.0 kmh 30.16 in1021.3 mb 0.00 in0.0 mm 0.00 in/hr0.0 mm/hr 0.00 in0.0 mm
05:06 AM 50.8°F10.4°C 6.3°F-14.3°C 16% 1.0 mph ESE1.6 kmh ESE 5.0 mph8.0 kmh 30.16 in1021.3 mb 0.00 in0.0 mm 0.00 in/hr0.0 mm/hr 0.00 in0.0 mm
05:01 AM 50.8°F10.4°C 6.3°F-14.3°C 16% 2.0 mph E3.2 kmh E 6.0 mph9.7 kmh 30.16 in1021.3 mb 0.00 in0.0 mm 0.00 in/hr0.0 mm/hr 0.00 in0.0 mm
04:56 AM 51.1°F10.6°C 6.5°F-14.2°C 16% 2.0 mph E3.2 kmh E 6.0 mph9.7 kmh 30.16 in1021.3 mb 0.00 in0.0 mm 0.00 in/hr0.0 mm/hr 0.00 in0.0 mm
04:51 AM 51.4°F10.8°C 5.3°F-14.8°C 15% 2.0 mph E3.2 kmh E 6.0 mph9.7 kmh 30.16 in1021.3 mb 0.00 in0.0 mm 0.00 in/hr0.0 mm/hr 0.00 in0.0 mm
04:46 AM 51.7°F10.9°C 5.6°F-14.7°C 15% 2.0 mph ENE3.2 kmh ENE 6.0 mph9.7 kmh 30.16 in1021.3 mb 0.00 in0.0 mm 0.00 in/hr0.0 mm/hr 0.00 in0.0 mm
04:41 AM 52.0°F11.1°C 5.8°F-14.6°C 15% 2.0 mph NE3.2 kmh NE 10.0 mph16.1 kmh 30.15 in1021.0 mb 0.00 in0.0 mm 0.00 in/hr0.0 mm/hr 0.00 in0.0 mm
04:36 AM 52.5°F11.4°C 6.2°F-14.3°C 15% 3.0 mph ENE4.8 kmh ENE 10.0 mph16.1 kmh 30.15 in1021.0 mb 0.00 in0.0 mm 0.00 in/hr0.0 mm/hr 0.00 in0.0 mm
04:31 AM 52.6°F11.4°C 6.3°F-14.3°C 15% 6.0 mph NE9.7 kmh NE 10.0 mph16.1 kmh 30.15 in1021.0 mb 0.00 in0.0 mm 0.00 in/hr0.0 mm/hr 0.00 in0.0 mm
04:26 AM 52.9°F11.6°C 6.5°F-14.2°C 15% 5.0 mph ENE8.0 kmh ENE 10.0 mph16.1 kmh 30.16 in1021.3 mb 0.00 in0.0 mm 0.00 in/hr0.0 mm/hr 0.00 in0.0 mm
04:21 AM 53.1°F11.7°C 5.2°F-14.9°C 14% 6.0 mph E9.7 kmh E 9.0 mph14.5 kmh 30.16 in1021.3 mb 0.00 in0.0 mm 0.00 in/hr0.0 mm/hr 0.00 in0.0 mm
04:16 AM 53.1°F11.7°C 5.2°F-14.9°C 14% 5.0 mph NE8.0 kmh NE 11.0 mph17.7 kmh 30.16 in1021.3 mb 0.00 in0.0 mm 0.00 in/hr0.0 mm/hr 0.00 in0.0 mm
04:11 AM 53.2°F11.8°C 6.8°F-14.0°C 15% 5.0 mph E8.0 kmh E 11.0 mph17.7 kmh 30.14 in1020.7 mb 0.00 in0.0 mm 0.00 in/hr0.0 mm/hr 0.00 in0.0 mm
04:06 AM 53.5°F11.9°C 5.5°F-14.7°C 14% 7.0 mph ENE11.3 kmh ENE 15.0 mph24.1 kmh 30.14 in1020.7 mb 0.00 in0.0 mm 0.00 in/hr0.0 mm/hr 0.00 in0.0 mm
04:01 AM 53.6°F12.0°C 7.1°F-13.8°C 15% 9.0 mph E14.5 kmh E 15.0 mph24.1 kmh 30.14 in1020.7 mb 0.00 in0.0 mm 0.00 in/hr0.0 mm/hr 0.00 in0.0 mm
03:56 AM 53.8°F12.1°C 5.7°F-14.6°C 14% 8.0 mph ENE12.9 kmh ENE 15.0 mph24.1 kmh 30.14 in1020.7 mb 0.00 in0.0 mm 0.00 in/hr0.0 mm/hr 0.00 in0.0 mm
03:51 AM 53.8°F12.1°C 5.7°F-14.6°C 14% 10.0 mph ENE16.1 kmh ENE 15.0 mph24.1 kmh 30.14 in1020.7 mb 0.00 in0.0 mm 0.00 in/hr0.0 mm/hr 0.00 in0.0 mm
03:46 AM 53.6°F12.0°C 5.6°F-14.7°C 14% 6.0 mph ENE9.7 kmh ENE 15.0 mph24.1 kmh 30.14 in1020.7 mb 0.00 in0.0 mm 0.00 in/hr0.0 mm/hr 0.00 in0.0 mm
03:41 AM 53.6°F12.0°C 5.6°F-14.7°C 14% 10.0 mph E16.1 kmh E 15.0 mph24.1 kmh 30.14 in1020.7 mb 0.00 in0.0 mm 0.00 in/hr0.0 mm/hr 0.00 in0.0 mm
03:36 AM 53.8°F12.1°C 5.7°F-14.6°C 14% 10.0 mph E16.1 kmh E 14.0 mph22.5 kmh 30.14 in1020.7 mb 0.00 in0.0 mm 0.00 in/hr0.0 mm/hr 0.00 in0.0 mm
03:31 AM 53.9°F12.2°C 5.8°F-14.6°C 14% 7.0 mph E11.3 kmh E 14.0 mph22.5 kmh 30.14 in1020.7 mb 0.00 in0.0 mm 0.00 in/hr0.0 mm/hr 0.00 in0.0 mm
03:26 AM 53.8°F12.1°C 5.7°F-14.6°C 14% 10.0 mph E16.1 kmh E 14.0 mph22.5 kmh 30.14 in1020.7 mb 0.00 in0.0 mm 0.00 in/hr0.0 mm/hr 0.00 in0.0 mm
03:21 AM 53.8°F12.1°C 5.7°F-14.6°C 14% 6.0 mph ENE9.7 kmh ENE 13.0 mph20.9 kmh 30.14 in1020.7 mb 0.00 in0.0 mm 0.00 in/hr0.0 mm/hr 0.00 in0.0 mm
03:16 AM 53.8°F12.1°C 5.7°F-14.6°C 14% 7.0 mph E11.3 kmh E 13.0 mph20.9 kmh 30.14 in1020.7 mb 0.00 in0.0 mm 0.00 in/hr0.0 mm/hr 0.00 in0.0 mm
03:11 AM 53.5°F11.9°C 5.5°F-14.7°C 14% 10.0 mph E16.1 kmh E 13.0 mph20.9 kmh 30.14 in1020.7 mb 0.00 in0.0 mm 0.00 in/hr0.0 mm/hr 0.00 in0.0 mm
03:06 AM 53.2°F11.8°C 6.8°F-14.0°C 15% 6.0 mph ENE9.7 kmh ENE 13.0 mph20.9 kmh 30.14 in1020.7 mb 0.00 in0.0 mm 0.00 in/hr0.0 mm/hr 0.00 in0.0 mm
03:01 AM 52.9°F11.6°C 6.5°F-14.2°C 15% 7.0 mph ENE11.3 kmh ENE 13.0 mph20.9 kmh 30.14 in1020.7 mb 0.00 in0.0 mm 0.00 in/hr0.0 mm/hr 0.00 in0.0 mm
02:56 AM 52.6°F11.4°C 6.3°F-14.3°C 15% 6.0 mph ENE9.7 kmh ENE 11.0 mph17.7 kmh 30.15 in1021.0 mb 0.00 in0.0 mm 0.00 in/hr0.0 mm/hr 0.00 in0.0 mm
02:51 AM 52.3°F11.3°C 11.3°F-11.5°C 19% 7.0 mph NE11.3 kmh NE 11.0 mph17.7 kmh 30.15 in1021.0 mb 0.00 in0.0 mm 0.00 in/hr0.0 mm/hr 0.00 in0.0 mm
02:46 AM 52.2°F11.2°C 6.0°F-14.4°C 15% 7.0 mph NE11.3 kmh NE 11.0 mph17.7 kmh 30.15 in1021.0 mb 0.00 in0.0 mm 0.00 in/hr0.0 mm/hr 0.00 in0.0 mm
02:41 AM 51.7°F10.9°C 7.0°F-13.9°C 16% 4.0 mph ENE6.4 kmh ENE 11.0 mph17.7 kmh 30.15 in1021.0 mb 0.00 in0.0 mm 0.00 in/hr0.0 mm/hr 0.00 in0.0 mm
02:36 AM 51.3°F10.7°C 6.7°F-14.1°C 16% 7.0 mph E11.3 kmh E 11.0 mph17.7 kmh 30.15 in1021.0 mb 0.00 in0.0 mm 0.00 in/hr0.0 mm/hr 0.00 in0.0 mm
02:31 AM 50.8°F10.4°C 6.3°F-14.3°C 16% 5.0 mph E8.0 kmh E 7.0 mph11.3 kmh 30.15 in1021.0 mb 0.00 in0.0 mm 0.00 in/hr0.0 mm/hr 0.00 in0.0 mm
02:26 AM 50.4°F10.2°C 7.3°F-13.7°C 17% 7.0 mph E11.3 kmh E 7.0 mph11.3 kmh 30.16 in1021.3 mb 0.00 in0.0 mm 0.00 in/hr0.0 mm/hr 0.00 in0.0 mm
02:21 AM 50.1°F10.1°C 7.0°F-13.9°C 17% 2.0 mph ENE3.2 kmh ENE 6.0 mph9.7 kmh 30.16 in1021.3 mb 0.00 in0.0 mm 0.00 in/hr0.0 mm/hr 0.00 in0.0 mm
02:16 AM 50.2°F10.1°C 7.1°F-13.8°C 17% 2.0 mph E3.2 kmh E 6.0 mph9.7 kmh 30.16 in1021.3 mb 0.00 in0.0 mm 0.00 in/hr0.0 mm/hr 0.00 in0.0 mm
02:11 AM 50.5°F10.3°C 7.3°F-13.7°C 17% Calm Calm 5.0 mph8.0 kmh 30.16 in1021.3 mb 0.00 in0.0 mm 0.00 in/hr0.0 mm/hr 0.00 in0.0 mm
02:06 AM 50.8°F10.4°C 7.6°F-13.6°C 17% 1.0 mph E1.6 kmh E 4.0 mph6.4 kmh 30.16 in1021.3 mb 0.00 in0.0 mm 0.00 in/hr0.0 mm/hr 0.00 in0.0 mm
02:01 AM 51.1°F10.6°C 6.5°F-14.2°C 16% Calm Calm 7.0 mph11.3 kmh 30.16 in1021.3 mb 0.00 in0.0 mm 0.00 in/hr0.0 mm/hr 0.00 in0.0 mm
01:56 AM 51.4°F10.8°C 6.7°F-14.1°C 16% 2.0 mph E3.2 kmh E 7.0 mph11.3 kmh 30.15 in1021.0 mb 0.00 in0.0 mm 0.00 in/hr0.0 mm/hr 0.00 in0.0 mm
01:51 AM 51.6°F10.9°C 6.9°F-13.9°C 16% 3.0 mph E4.8 kmh E 7.0 mph11.3 kmh 30.15 in1021.0 mb 0.00 in0.0 mm 0.00 in/hr0.0 mm/hr 0.00 in0.0 mm
01:46 AM 51.7°F10.9°C 7.0°F-13.9°C 16% 4.0 mph E6.4 kmh E 7.0 mph11.3 kmh 30.15 in1021.0 mb 0.00 in0.0 mm 0.00 in/hr0.0 mm/hr 0.00 in0.0 mm
01:41 AM 51.9°F11.1°C 5.7°F-14.6°C 15% 3.0 mph ESE4.8 kmh ESE 5.0 mph8.0 kmh 30.16 in1021.3 mb 0.00 in0.0 mm 0.00 in/hr0.0 mm/hr 0.00 in0.0 mm
01:36 AM 52.0°F11.1°C 5.8°F-14.6°C 15% 2.0 mph ESE3.2 kmh ESE 5.0 mph8.0 kmh 30.16 in1021.3 mb 0.00 in0.0 mm 0.00 in/hr0.0 mm/hr 0.00 in0.0 mm
01:31 AM 52.2°F11.2°C 6.0°F-14.4°C 15% 1.0 mph E1.6 kmh E 5.0 mph8.0 kmh 30.16 in1021.3 mb 0.00 in0.0 mm 0.00 in/hr0.0 mm/hr 0.00 in0.0 mm
01:26 AM 52.5°F11.4°C 6.2°F-14.3°C 15% 2.0 mph ESE3.2 kmh ESE 7.0 mph11.3 kmh 30.15 in1021.0 mb 0.00 in0.0 mm 0.00 in/hr0.0 mm/hr 0.00 in0.0 mm
01:21 AM 52.6°F11.4°C 6.3°F-14.3°C 15% 3.0 mph ESE4.8 kmh ESE 7.0 mph11.3 kmh 30.15 in1021.0 mb 0.00 in0.0 mm 0.00 in/hr0.0 mm/hr 0.00 in0.0 mm
01:16 AM 52.9°F11.6°C 6.5°F-14.2°C 15% 1.0 mph ESE1.6 kmh ESE 7.0 mph11.3 kmh 30.15 in1021.0 mb 0.00 in0.0 mm 0.00 in/hr0.0 mm/hr 0.00 in0.0 mm
01:11 AM 53.2°F11.8°C 6.8°F-14.0°C 15% 3.0 mph E4.8 kmh E 7.0 mph11.3 kmh 30.16 in1021.3 mb 0.00 in0.0 mm 0.00 in/hr0.0 mm/hr 0.00 in0.0 mm
01:06 AM 53.5°F11.9°C 7.0°F-13.9°C 15% 5.0 mph E8.0 kmh E 12.0 mph19.3 kmh 30.16 in1021.3 mb 0.00 in0.0 mm 0.00 in/hr0.0 mm/hr 0.00 in0.0 mm
01:01 AM 53.8°F12.1°C 5.7°F-14.6°C 14% 3.0 mph ESE4.8 kmh ESE 12.0 mph19.3 kmh 30.16 in1021.3 mb 0.00 in0.0 mm 0.00 in/hr0.0 mm/hr 0.00 in0.0 mm
12:56 AM 53.9°F12.2°C 5.8°F-14.6°C 14% 5.0 mph E8.0 kmh E 12.0 mph19.3 kmh 30.16 in1021.3 mb 0.00 in0.0 mm 0.00 in/hr0.0 mm/hr 0.00 in0.0 mm
12:51 AM 53.9°F12.2°C 5.8°F-14.6°C 14% 5.0 mph NE8.0 kmh NE 12.0 mph19.3 kmh 30.16 in1021.3 mb 0.00 in0.0 mm 0.00 in/hr0.0 mm/hr 0.00 in0.0 mm
12:46 AM 53.9°F12.2°C 5.8°F-14.6°C 14% 4.0 mph E6.4 kmh E 11.0 mph17.7 kmh 30.16 in1021.3 mb 0.00 in0.0 mm 0.00 in/hr0.0 mm/hr 0.00 in0.0 mm
12:41 AM 53.8°F12.1°C 5.7°F-14.6°C 14% 10.0 mph ENE16.1 kmh ENE 11.0 mph17.7 kmh 30.17 in1021.7 mb 0.00 in0.0 mm 0.00 in/hr0.0 mm/hr 0.00 in0.0 mm
12:36 AM 53.5°F11.9°C 7.0°F-13.9°C 15% 7.0 mph ENE11.3 kmh ENE 11.0 mph17.7 kmh 30.17 in1021.7 mb 0.00 in0.0 mm 0.00 in/hr0.0 mm/hr 0.00 in0.0 mm
12:31 AM 53.5°F11.9°C 7.0°F-13.9°C 15% 6.0 mph ENE9.7 kmh ENE 9.0 mph14.5 kmh 30.17 in1021.7 mb 0.00 in0.0 mm 0.00 in/hr0.0 mm/hr 0.00 in0.0 mm
12:26 AM 53.2°F11.8°C 6.8°F-14.0°C 15% 3.0 mph ENE4.8 kmh ENE 9.0 mph14.5 kmh 30.17 in1021.7 mb 0.00 in0.0 mm 0.00 in/hr0.0 mm/hr 0.00 in0.0 mm
12:21 AM 53.1°F11.7°C 6.7°F-14.1°C 15% 2.0 mph E3.2 kmh E 9.0 mph14.5 kmh 30.17 in1021.7 mb 0.00 in0.0 mm 0.00 in/hr0.0 mm/hr 0.00 in0.0 mm
12:16 AM 53.1°F11.7°C 6.7°F-14.1°C 15% 4.0 mph ENE6.4 kmh ENE 12.0 mph19.3 kmh 30.17 in1021.7 mb 0.00 in0.0 mm 0.00 in/hr0.0 mm/hr 0.00 in0.0 mm
12:11 AM 53.2°F11.8°C 6.8°F-14.0°C 15% 7.0 mph ENE11.3 kmh ENE 12.0 mph19.3 kmh 30.18 in1022.0 mb 0.00 in0.0 mm 0.00 in/hr0.0 mm/hr 0.00 in0.0 mm
12:06 AM 53.3°F11.8°C 6.9°F-13.9°C 15% 7.0 mph E11.3 kmh E 12.0 mph19.3 kmh 30.18 in1022.0 mb 0.00 in0.0 mm 0.00 in/hr0.0 mm/hr 0.00 in0.0 mm
12:01 AM 53.1°F11.7°C 6.7°F-14.1°C 15% 6.0 mph E9.7 kmh E 12.0 mph19.3 kmh 30.18 in1022.0 mb 0.00 in0.0 mm 0.00 in/hr0.0 mm/hr 0.00 in0.0 mm